Time;durP1;ratioP1;P1;durP2;ratioP2;P2;SDS_P1;SDS_P2;PMS_P1;PMS_P2;Temp;Humidity;BMP_temperature;BMP_pressure;BME280_temperature;BME280_humidity;BME280_pressure;Samples;Min_cycle;Max_cycle;Signal;HPM_P1;HPM_P2
2021/04/25 00:01:06;;;;;;;13.68;10.07;;;;;;;8.99;52.86;101505.25;5043712;28;20391;-66
2021/04/25 00:03:31;;;;;;;12.27;10.18;;;;;;;7.86;56.13;101495.00;5073534;28;20032;-66
2021/04/25 00:05:57;;;;;;;16.20;11.65;;;;;;;8.05;55.33;101490.94;5072800;28;20150;-66
2021/04/25 00:08:22;;;;;;;16.48;12.02;;;;;;;8.61;54.39;101490.81;5035486;28;20028;-65
2021/04/25 00:10:47;;;;;;;15.02;13.35;;;;;;;7.35;58.32;101491.53;5057914;28;20387;-66
2021/04/25 00:13:13;;;;;;;16.85;12.43;;;;;;;7.69;56.65;101487.75;5071226;28;20111;-65
2021/04/25 00:15:38;;;;;;;17.85;13.75;;;;;;;7.60;57.20;101487.59;5071788;28;20125;-66
2021/04/25 00:18:04;;;;;;;16.70;14.80;;;;;;;7.16;59.01;101485.97;5056746;28;20060;-66
2021/04/25 00:20:29;;;;;;;17.35;13.52;;;;;;;7.18;59.40;101479.03;5055446;28;20032;-66
2021/04/25 00:22:54;;;;;;;16.45;13.52;;;;;;;7.12;60.12;101477.16;5072842;28;20541;-66
2021/04/25 00:25:20;;;;;;;17.15;12.18;;;;;;;7.02;60.07;101488.34;5042845;28;20417;-65
2021/04/25 00:27:46;;;;;;;14.27;12.02;;;;;;;7.66;58.17;101468.44;5054956;28;20090;-66
2021/04/25 00:30:15;;;;;;;15.07;11.45;;;;;;;7.45;58.10;101482.97;5072882;28;20119;-65
2021/04/25 00:32:40;;;;;;;16.33;12.80;;;;;;;7.36;58.97;101482.81;5072583;28;20029;-65
2021/04/25 00:35:06;;;;;;;15.30;11.52;;;;;;;7.69;57.69;101472.00;5072659;28;20086;-65
2021/04/25 00:37:32;;;;;;;15.13;11.85;;;;;;;7.27;58.61;101479.16;5056144;28;20032;-65
2021/04/25 00:39:57;;;;;;;12.65;10.25;;;;;;;6.60;60.16;101474.44;5062252;28;20443;-66
2021/04/25 00:42:22;;;;;;;12.85;11.18;;;;;;;6.83;59.60;101471.38;5072699;28;20024;-66
2021/04/25 00:44:48;;;;;;;13.93;10.20;;;;;;;7.08;59.47;101466.59;5072514;28;20025;-66
2021/04/25 00:47:13;;;;;;;15.73;11.68;;;;;;;7.19;58.74;101467.66;5072325;28;20028;-65
2021/04/25 00:49:39;;;;;;;12.40;10.30;;;;;;;7.72;56.57;101463.28;5054494;28;20024;-66
2021/04/25 00:52:06;;;;;;;12.90;8.70;;;;;;;6.54;59.73;101470.81;5058587;28;20035;-66
2021/04/25 00:54:31;;;;;;;10.23;9.05;;;;;;;6.37;59.90;101461.75;5054704;28;20025;-65
2021/04/25 00:56:58;;;;;;;11.43;8.38;;;;;;;6.38;60.52;101461.78;5064887;28;20439;-65
2021/04/25 00:59:24;;;;;;;16.70;9.95;;;;;;;6.89;58.82;101461.88;5071368;28;20510;-65
2021/04/25 01:01:49;;;;;;;13.90;10.00;;;;;;;7.01;58.61;101463.84;5055713;28;20028;-65
2021/04/25 01:04:14;;;;;;;13.48;9.23;;;;;;;7.62;56.80;101458.72;5072355;28;20025;-66
2021/04/25 01:06:39;;;;;;;10.23;8.73;;;;;;;8.25;54.35;101455.25;5071252;28;20051;-65
2021/04/25 01:09:05;;;;;;;12.27;9.48;;;;;;;7.30;57.04;101465.22;5071873;28;20029;-66
2021/04/25 01:11:30;;;;;;;11.85;8.93;;;;;;;6.29;60.38;101466.81;5072064;28;20065;-66
2021/04/25 01:13:56;;;;;;;11.10;8.88;;;;;;;6.02;61.04;101471.44;5071986;28;20079;-66
2021/04/25 01:16:21;;;;;;;11.60;8.90;;;;;;;5.71;61.94;101475.06;5071762;28;20475;-65
2021/04/25 01:18:46;;;;;;;10.10;8.07;;;;;;;5.57;62.33;101466.91;5072149;28;20024;-65
2021/04/25 01:21:12;;;;;;;10.05;8.15;;;;;;;5.77;62.08;101476.09;5069823;28;20024;-66
2021/04/25 01:23:38;;;;;;;11.48;7.75;;;;;;;6.19;60.17;101468.34;5069697;28;20031;-66
2021/04/25 01:26:03;;;;;;;9.68;7.05;;;;;;;6.43;59.72;101485.44;5053057;28;20103;-65
2021/04/25 01:28:29;;;;;;;10.63;7.07;;;;;;;6.70;58.56;101483.38;5070720;28;20092;-66
2021/04/25 01:30:55;;;;;;;6.72;4.53;;;;;;;6.72;56.97;101484.25;5072349;28;20021;-66
2021/04/25 01:33:24;;;;;;;6.35;4.68;;;;;;;6.58;56.84;101484.00;5071141;28;20063;-66
2021/04/25 01:35:50;;;;;;;6.15;5.40;;;;;;;7.38;55.20;101482.00;5061107;28;20480;-66
2021/04/25 01:38:15;;;;;;;8.65;6.70;;;;;;;7.66;54.56;101476.31;5034986;28;20033;-66
2021/04/25 01:40:41;;;;;;;10.10;5.72;;;;;;;8.30;51.96;101483.38;5040279;28;20036;-65
2021/04/25 01:43:06;;;;;;;8.02;6.28;;;;;;;7.87;52.44;101480.16;5071710;28;20028;-65
2021/04/25 01:45:31;;;;;;;8.20;6.07;;;;;;;8.29;52.36;101492.13;5053654;28;20390;-66
2021/04/25 01:48:00;;;;;;;7.75;6.32;;;;;;;8.21;52.82;101493.78;5071525;28;20067;-66
2021/04/25 01:50:27;;;;;;;7.82;5.70;;;;;;;6.97;55.42;101498.75;5071257;28;20032;-66
2021/04/25 01:52:54;;;;;;;7.80;5.05;;;;;;;6.60;56.59;101485.78;5071073;28;20386;-66
2021/04/25 01:55:20;;;;;;;6.78;4.45;;;;;;;6.72;55.96;101479.03;5071502;28;20107;-66
2021/04/25 01:57:46;;;;;;;5.05;3.65;;;;;;;6.38;56.66;101479.22;5064685;28;20032;-66
2021/04/25 02:00:14;;;;;;;7.72;3.92;;;;;;;6.91;55.77;101481.16;5071147;28;20036;-66
2021/04/25 02:02:43;;;;;;;4.80;3.95;;;;;;;6.70;56.07;101486.84;5033879;28;20499;-65
2021/04/25 02:05:09;;;;;;;4.03;3.22;;;;;;;6.41;56.89;101480.16;5033689;28;20407;-66
2021/04/25 02:07:34;;;;;;;8.50;4.70;;;;;;;6.06;57.70;101476.78;5049378;28;20089;-65
2021/04/25 02:10:00;;;;;;;7.35;4.28;;;;;;;5.55;59.73;101484.28;5071403;28;20028;-65
2021/04/25 02:12:25;;;;;;;4.47;3.58;;;;;;;6.22;56.97;101480.63;5070149;28;20020;-65
2021/04/25 02:14:51;;;;;;;4.28;3.67;;;;;;;6.07;57.79;101482.03;5051953;28;20033;-65
2021/04/25 02:17:16;;;;;;;6.10;3.97;;;;;;;6.53;56.72;101479.53;5071172;28;20060;-65
2021/04/25 02:19:42;;;;;;;9.18;4.28;;;;;;;6.32;56.92;101484.31;5071512;28;20038;-66
2021/04/25 02:22:07;;;;;;;4.38;3.80;;;;;;;6.56;56.20;101480.47;5032827;28;20120;-65
2021/04/25 02:24:32;;;;;;;5.43;3.70;;;;;;;6.82;55.73;101485.31;5051453;28;20613;-66
2021/04/25 02:26:58;;;;;;;5.72;4.00;;;;;;;6.48;57.28;101489.06;5049941;28;20426;-65
2021/04/25 02:29:23;;;;;;;5.40;4.57;;;;;;;6.38;57.00;101484.47;5051341;28;20021;-65
2021/04/25 02:31:48;;;;;;;6.03;4.72;;;;;;;6.25;57.76;101481.59;5066046;28;20116;-65
2021/04/25 02:34:14;;;;;;;5.47;4.03;;;;;;;6.27;57.59;101479.88;5062008;28;20056;-65
2021/04/25 02:36:40;;;;;;;6.82;4.50;;;;;;;6.27;58.23;101490.34;5074284;28;20109;-65
2021/04/25 02:39:05;;;;;;;8.55;5.20;;;;;;;6.49;57.24;101488.19;5057163;28;20046;-65
2021/04/25 02:41:31;;;;;;;9.18;4.85;;;;;;;6.72;56.66;101484.25;5057195;28;20468;-65
2021/04/25 02:43:56;;;;;;;6.68;5.13;;;;;;;7.06;55.72;101483.19;5075117;28;20451;-65
2021/04/25 02:46:22;;;;;;;10.30;5.15;;;;;;;6.77;56.01;101478.25;5056830;28;20102;-65
2021/04/25 02:48:47;;;;;;;7.03;4.82;;;;;;;7.14;54.85;101482.44;5074616;28;20020;-65
2021/04/25 02:51:12;;;;;;;8.23;5.00;;;;;;;7.31;54.43;101480.13;5056756;28;20111;-65
2021/04/25 02:53:38;;;;;;;7.75;5.28;;;;;;;7.07;54.82;101481.44;5074522;28;20039;-65
2021/04/25 02:56:03;;;;;;;7.07;5.10;;;;;;;7.23;54.89;101477.34;5073196;28;20059;-65
2021/04/25 02:58:29;;;;;;;5.60;4.88;;;;;;;6.92;56.12;101480.31;5071809;28;20021;-65
2021/04/25 03:00:54;;;;;;;6.22;5.03;;;;;;;7.19;55.04;101483.41;5072904;28;20116;-65
2021/04/25 03:03:20;;;;;;;5.65;4.18;;;;;;;7.28;54.41;101477.44;5074761;28;20028;-65
2021/04/25 03:05:45;;;;;;;6.47;5.25;;;;;;;7.06;55.49;101483.19;5073092;28;20099;-65
2021/04/25 03:08:10;;;;;;;8.90;4.90;;;;;;;6.89;55.93;101487.22;5074364;28;20028;-65
2021/04/25 03:10:36;;;;;;;6.68;4.90;;;;;;;7.22;54.74;101480.84;5073337;28;20096;-66
2021/04/25 03:13:01;;;;;;;5.00;4.32;;;;;;;6.80;55.18;101483.56;5074253;28;20037;-65
2021/04/25 03:15:26;;;;;;;5.47;4.78;;;;;;;6.98;55.93;101476.91;5074345;28;20551;-65
2021/04/25 03:17:52;;;;;;;7.72;4.65;;;;;;;7.16;54.81;101472.84;5071509;28;20116;-66
2021/04/25 03:20:20;;;;;;;6.88;5.00;;;;;;;7.08;54.72;101488.47;5074003;28;20131;-65
2021/04/25 03:22:45;;;;;;;6.88;4.68;;;;;;;7.23;54.61;101476.50;5056651;28;20083;-65
2021/04/25 03:25:11;;;;;;;6.15;3.85;;;;;;;7.04;55.36;101482.25;5055949;28;20032;-65
2021/04/25 03:27:37;;;;;;;6.50;4.47;;;;;;;6.91;55.40;101490.78;5072871;28;20107;-65
2021/04/25 03:30:04;;;;;;;4.95;4.00;;;;;;;6.91;55.92;101482.91;5072688;28;20115;-65
2021/04/25 03:32:30;;;;;;;5.57;4.03;;;;;;;7.03;55.54;101480.50;5072842;28;20024;-65
2021/04/25 03:34:55;;;;;;;9.38;3.67;;;;;;;7.27;54.69;101479.16;5074043;28;20486;-65
2021/04/25 03:37:20;;;;;;;9.88;4.30;;;;;;;7.18;54.32;101476.41;5070703;28;20048;-65
2021/04/25 03:39:46;;;;;;;3.58;3.25;;;;;;;6.64;56.68;101476.25;5073789;28;20062;-65
2021/04/25 03:42:11;;;;;;;4.88;3.50;;;;;;;6.59;56.44;101491.00;5074011;28;20028;-65
2021/04/25 03:44:36;;;;;;;10.63;3.83;;;;;;;6.54;57.31;101490.91;5055749;28;20035;-65
2021/04/25 03:47:02;;;;;;;6.30;3.60;;;;;;;6.78;56.39;101485.28;5073555;28;20024;-66
2021/04/25 03:49:27;;;;;;;5.72;3.70;;;;;;;6.69;56.55;101490.34;5055776;28;20028;-65
2021/04/25 03:51:54;;;;;;;5.72;3.63;;;;;;;6.63;56.60;101491.09;5073600;28;20032;-65
2021/04/25 03:54:20;;;;;;;4.18;3.75;;;;;;;6.46;56.56;101484.59;5039351;28;20036;-65
2021/04/25 03:56:45;;;;;;;7.80;4.35;;;;;;;6.72;56.87;101495.66;5073503;28;20025;-65
2021/04/25 03:59:11;;;;;;;6.82;3.60;;;;;;;6.71;56.36;101487.75;5073279;28;20033;-65
2021/04/25 04:01:36;;;;;;;7.93;4.45;;;;;;;6.61;56.25;101491.91;5050090;28;20031;-65
2021/04/25 04:04:02;;;;;;;8.10;3.88;;;;;;;6.64;57.01;101492.00;5055693;28;20028;-65
2021/04/25 04:06:27;;;;;;;6.60;4.43;;;;;;;6.44;57.01;101500.31;5055148;28;20028;-65
2021/04/25 04:08:53;;;;;;;5.85;3.85;;;;;;;6.40;57.60;101495.84;5070753;28;20028;-66
2021/04/25 04:11:18;;;;;;;8.25;4.22;;;;;;;6.61;56.54;101491.91;5072583;28;20016;-65
2021/04/25 04:13:43;;;;;;;9.48;4.10;;;;;;;6.64;56.71;101492.00;5070545;28;20552;-65
2021/04/25 04:16:09;;;;;;;6.63;3.95;;;;;;;6.65;56.74;101488.50;5072905;28;20031;-65
2021/04/25 04:18:34;;;;;;;6.70;3.45;;;;;;;6.82;55.97;101495.81;5065362;28;20055;-66
2021/04/25 04:20:59;;;;;;;5.18;3.88;;;;;;;6.66;57.17;101503.38;5055295;28;20024;-65
2021/04/25 04:23:25;;;;;;;5.43;3.70;;;;;;;6.62;57.45;101498.94;5072973;28;20396;-66
2021/04/25 04:25:50;;;;;;;5.93;3.63;;;;;;;6.25;58.36;101493.78;5071375;28;20024;-65
2021/04/25 04:28:15;;;;;;;6.40;3.83;;;;;;;6.73;56.90;101499.16;5070178;28;20025;-65
2021/04/25 04:30:41;;;;;;;6.90;4.22;;;;;;;6.88;56.95;101499.47;5072724;28;20097;-66
2021/04/25 04:33:07;;;;;;;7.30;5.50;;;;;;;7.09;55.92;101494.56;5071783;28;20039;-65
2021/04/25 04:35:32;;;;;;;6.28;4.43;;;;;;;7.17;56.54;101493.88;5069308;28;20411;-65
2021/04/25 04:37:57;;;;;;;9.45;4.88;;;;;;;7.62;53.86;101485.88;5071786;28;20032;-65
2021/04/25 04:40:23;;;;;;;8.55;4.25;;;;;;;7.16;55.70;101499.09;5067862;28;20016;-66
2021/04/25 04:42:48;;;;;;;6.60;4.47;;;;;;;7.12;56.34;101505.13;5069637;28;20024;-65
2021/04/25 04:45:15;;;;;;;7.35;4.85;;;;;;;7.34;55.66;101500.28;5072628;28;20110;-65
2021/04/25 04:47:45;;;;;;;8.25;4.97;;;;;;;7.48;55.57;101498.78;5069224;28;20071;-66
2021/04/25 04:50:16;;;;;;;8.60;5.13;;;;;;;7.62;54.94;101501.66;5073449;28;20055;-66
2021/04/25 04:52:42;;;;;;;6.80;5.37;;;;;;;7.60;54.88;101508.59;5065979;28;20016;-65
2021/04/25 04:55:08;;;;;;;11.75;5.20;;;;;;;7.60;54.81;101505.09;5038054;28;20360;-66
2021/04/25 04:57:33;;;;;;;11.85;6.72;;;;;;;7.96;54.54;101509.16;5063101;28;20095;-65
2021/04/25 04:59:59;;;;;;;9.52;5.43;;;;;;;8.27;53.55;101509.59;5072130;28;20387;-66
2021/04/25 05:02:24;;;;;;;10.15;5.22;;;;;;;8.38;53.11;101504.50;5071890;28;20094;-66
2021/04/25 05:04:49;;;;;;;7.30;5.90;;;;;;;8.24;53.17;101501.69;5050620;28;20024;-66
2021/04/25 05:07:15;;;;;;;14.05;5.93;;;;;;;8.28;52.93;101506.13;5071724;28;20085;-66
2021/04/25 05:09:40;;;;;;;8.68;5.28;;;;;;;8.93;52.45;101513.06;5069164;28;20028;-66
2021/04/25 05:12:06;;;;;;;8.27;4.85;;;;;;;8.88;51.87;101499.00;5072377;28;20086;-66
2021/04/25 05:14:31;;;;;;;12.15;5.60;;;;;;;8.58;53.08;101507.41;5071916;28;20514;-66
2021/04/25 05:16:56;;;;;;;8.70;5.22;;;;;;;9.05;52.27;101505.34;5071588;28;20024;-66
2021/04/25 05:19:22;;;;;;;8.02;4.82;;;;;;;8.93;51.62;101508.72;5054340;28;20091;-66
2021/04/25 05:21:47;;;;;;;10.15;5.63;;;;;;;8.88;52.02;101505.16;5071653;28;20016;-66
2021/04/25 05:24:13;;;;;;;8.30;5.10;;;;;;;9.21;51.44;101505.50;5059675;28;20111;-66
2021/04/25 05:26:38;;;;;;;9.93;5.18;;;;;;;9.12;51.92;101514.16;5071743;28;20036;-66
2021/04/25 05:29:04;;;;;;;11.63;6.30;;;;;;;9.36;51.03;101508.28;5051421;28;20033;-66
2021/04/25 05:31:29;;;;;;;11.77;5.57;;;;;;;9.47;51.04;101502.22;5048345;28;20012;-66
2021/04/25 05:33:55;;;;;;;10.68;6.97;;;;;;;9.30;50.91;101507.34;5058872;28;20033;-66
2021/04/25 05:36:20;;;;;;;10.07;6.03;;;;;;;9.14;51.78;101506.28;5071734;28;20533;-66
2021/04/25 05:38:45;;;;;;;7.40;5.65;;;;;;;9.80;50.45;101510.41;5069067;28;20395;-67
2021/04/25 05:41:11;;;;;;;10.23;6.20;;;;;;;9.52;50.81;101513.69;5063439;28;20028;-66
2021/04/25 05:43:36;;;;;;;13.93;6.63;;;;;;;9.32;51.43;101514.38;5034605;28;20029;-66
2021/04/25 05:46:02;;;;;;;13.98;6.18;;;;;;;8.96;52.11;101526.28;5041619;28;20028;-67
2021/04/25 05:48:27;;;;;;;9.52;5.60;;;;;;;10.44;48.56;101527.47;5071233;28;20028;-67
2021/04/25 05:50:52;;;;;;;10.10;6.03;;;;;;;9.54;50.72;101526.84;5058680;28;20020;-66
2021/04/25 05:53:18;;;;;;;11.18;6.15;;;;;;;12.52;44.50;101525.06;5069433;28;20472;-66
2021/04/25 05:55:43;;;;;;;7.07;5.15;;;;;;;15.77;37.55;101528.88;5061155;28;20335;-67
2021/04/25 05:58:09;;;;;;;9.35;5.20;;;;;;;17.94;33.16;101518.94;5070200;28;20035;-67
2021/04/25 06:00:37;;;;;;;13.00;5.40;;;;;;;19.64;31.31;101529.09;5072045;28;20028;-67
2021/04/25 06:03:03;;;;;;;8.05;5.80;;;;;;;20.09;29.18;101521.38;5054268;28;20540;-67
2021/04/25 06:05:28;;;;;;;10.30;5.82;;;;;;;17.83;33.83;101523.69;5052948;28;20033;-68
2021/04/25 06:07:54;;;;;;;10.10;5.50;;;;;;;21.92;27.53;101521.44;5056708;28;20556;-67
2021/04/25 06:10:20;;;;;;;7.32;5.22;;;;;;;24.04;24.98;101520.41;5057818;28;20056;-68
2021/04/25 06:12:48;;;;;;;9.18;4.80;;;;;;;23.58;24.87;101524.53;5058236;28;20044;-68
2021/04/25 06:15:14;;;;;;;9.43;5.22;;;;;;;24.16;25.38;101524.28;5075290;28;20032;-68
2021/04/25 06:17:40;;;;;;;5.78;4.55;;;;;;;23.75;24.63;101523.69;5038142;28;20130;-68
2021/04/25 06:20:06;;;;;;;6.75;4.80;;;;;;;23.30;25.38;101536.66;5073039;28;20028;-68
2021/04/25 06:22:31;;;;;;;17.98;5.97;;;;;;;21.39;26.57;101520.03;5074863;28;20016;-67
2021/04/25 06:24:57;;;;;;;6.30;4.22;;;;;;;18.73;30.71;101531.03;5057854;28;20039;-69
2021/04/25 06:27:24;;;;;;;11.13;4.97;;;;;;;17.48;33.48;101534.34;5065456;28;20028;-67
2021/04/25 06:29:49;;;;;;;8.73;5.97;;;;;;;15.26;36.56;101546.53;5075369;28;20379;-66
2021/04/25 06:32:14;;;;;;;9.93;5.18;;;;;;;14.80;37.69;101533.91;5064080;28;20025;-66
2021/04/25 06:34:40;;;;;;;10.27;5.18;;;;;;;14.98;38.50;101544.25;5074887;28;20029;-70
2021/04/25 06:37:05;;;;;;;11.05;5.88;;;;;;;15.01;38.07;101546.88;5071802;28;20111;-70
2021/04/25 06:39:30;;;;;;;7.35;5.00;;;;;;;15.80;37.04;101537.72;5074624;28;20036;-70
2021/04/25 06:41:56;;;;;;;8.93;5.35;;;;;;;16.20;35.63;101542.34;5066913;28;20460;-66
2021/04/25 06:44:21;;;;;;;7.80;5.57;;;;;;;20.14;30.38;101543.50;5074481;28;20032;-66
2021/04/25 06:46:46;;;;;;;7.65;5.15;;;;;;;21.91;26.49;101541.13;5066559;28;20028;-67
2021/04/25 06:49:12;;;;;;;7.15;5.57;;;;;;;22.05;27.09;101543.22;5073660;28;20113;-67
2021/04/25 06:51:37;;;;;;;7.47;4.43;;;;;;;24.28;24.06;101538.94;5074324;28;20169;-67
2021/04/25 06:54:03;;;;;;;8.10;5.13;;;;;;;21.82;26.87;101554.97;5073993;28;20486;-67
2021/04/25 06:56:28;;;;;;;7.18;4.65;;;;;;;20.59;28.72;101555.28;5056601;28;20033;-67
2021/04/25 06:58:55;;;;;;;7.72;5.20;;;;;;;19.67;28.90;101553.09;5056611;28;20032;-67
2021/04/25 07:01:20;;;;;;;9.50;6.35;;;;;;;23.56;25.20;101559.63;5043157;28;20395;-67
2021/04/25 07:03:48;;;;;;;14.98;9.35;;;;;;;19.80;29.76;101563.38;5071031;28;20032;-67
2021/04/25 07:06:14;;;;;;;12.68;6.60;;;;;;;16.85;34.21;101565.94;5068391;28;20480;-67
2021/04/25 07:08:39;;;;;;;11.77;6.78;;;;;;;14.24;37.96;101570.75;5074650;28;20032;-67
2021/04/25 07:11:04;;;;;;;8.75;6.53;;;;;;;16.34;36.07;101565.19;5056650;28;20028;-67
2021/04/25 07:13:30;;;;;;;8.90;6.25;;;;;;;22.51;27.31;101560.91;5074328;28;20094;-67
2021/04/25 07:15:55;;;;;;;7.78;5.70;;;;;;;22.14;26.42;101562.56;5073809;28;20024;-67
2021/04/25 07:18:20;;;;;;;10.02;6.00;;;;;;;21.99;26.49;101564.09;5056261;28;20039;-67
2021/04/25 07:20:47;;;;;;;8.40;5.65;;;;;;;24.28;24.13;101561.41;5072107;28;20063;-67
2021/04/25 07:23:13;;;;;;;8.85;5.55;;;;;;;26.68;21.96;101559.38;5068937;28;20043;-67
2021/04/25 07:25:38;;;;;;;8.13;6.45;;;;;;;24.58;23.01;101563.34;5060125;28;20021;-67
2021/04/25 07:28:04;;;;;;;9.93;5.32;;;;;;;25.72;22.62;101570.56;5070707;28;20024;-68
2021/04/25 07:30:29;;;;;;;5.85;4.63;;;;;;;25.34;23.02;101577.19;5062895;28;20033;-67
2021/04/25 07:32:54;;;;;;;7.70;5.40;;;;;;;26.80;20.98;101571.28;5072664;28;20024;-67
2021/04/25 07:35:20;;;;;;;8.05;5.15;;;;;;;28.30;19.77;101578.53;5069012;28;20060;-68
2021/04/25 07:37:47;;;;;;;7.38;5.13;;;;;;;27.73;20.42;101576.06;5072242;28;20021;-68
2021/04/25 07:40:13;;;;;;;6.82;4.70;;;;;;;29.99;18.65;101582.56;5073159;28;20491;-68
2021/04/25 07:42:38;;;;;;;7.10;4.50;;;;;;;28.81;19.12;101579.47;5073666;28;20112;-69
2021/04/25 07:45:06;;;;;;;7.43;4.45;;;;;;;28.10;19.34;101583.50;5073850;28;20479;-68
2021/04/25 07:47:31;;;;;;;5.57;4.40;;;;;;;27.92;20.31;101580.22;5061755;28;20119;-68
2021/04/25 07:49:57;;;;;;;6.97;4.72;;;;;;;30.09;18.29;101570.00;5064252;28;20532;-68
2021/04/25 07:52:22;;;;;;;6.70;4.50;;;;;;;30.39;17.71;101584.03;5058602;28;20025;-68
2021/04/25 07:54:47;;;;;;;7.10;4.97;;;;;;;29.09;19.35;101582.03;5057839;28;20028;-68
2021/04/25 07:57:12;;;;;;;6.50;4.20;;;;;;;29.59;18.31;101587.38;5071790;28;20028;-68
2021/04/25 07:59:38;;;;;;;8.50;4.32;;;;;;;28.80;18.38;101575.88;5065543;28;20089;-68
2021/04/25 08:02:03;;;;;;;73.80;9.63;;;;;;;30.95;17.35;101579.59;5073671;28;20052;-68
2021/04/25 08:04:28;;;;;;;6.78;4.18;;;;;;;30.43;17.75;101583.66;5073520;28;20067;-68
2021/04/25 08:06:54;;;;;;;18.13;5.20;;;;;;;27.89;19.80;101588.56;5072321;28;20024;-68
2021/04/25 08:09:19;;;;;;;6.10;3.80;;;;;;;28.21;18.83;101593.56;5063970;28;20145;-68
2021/04/25 08:11:45;;;;;;;5.22;3.40;;;;;;;31.21;16.78;101595.63;5072827;28;20020;-68
2021/04/25 08:14:10;;;;;;;6.95;4.03;;;;;;;28.53;18.81;101592.31;5073027;28;20063;-68
2021/04/25 08:16:35;;;;;;;7.63;3.60;;;;;;;29.27;18.13;101588.81;5071601;28;20028;-68
2021/04/25 08:19:01;;;;;;;3.67;3.30;;;;;;;29.04;18.39;101593.25;5073303;28;20480;-68
2021/04/25 08:21:27;;;;;;;7.95;3.63;;;;;;;26.68;20.83;101583.75;5073292;28;20028;-68
2021/04/25 08:23:53;;;;;;;4.80;3.40;;;;;;;23.56;24.04;101596.44;5073287;28;20082;-68
2021/04/25 08:26:18;;;;;;;7.43;3.90;;;;;;;21.58;25.44;101587.25;5051895;28;20036;-68
2021/04/25 08:28:43;;;;;;;6.28;3.90;;;;;;;23.79;24.50;101594.41;5073464;28;20024;-68
2021/04/25 08:31:09;;;;;;;6.10;3.33;;;;;;;24.28;23.73;101584.78;5071902;28;20063;-68
2021/04/25 08:33:34;;;;;;;4.82;3.58;;;;;;;26.68;20.59;101583.75;5055240;28;20055;-68
2021/04/25 08:35:59;;;;;;;13.65;3.58;;;;;;;28.41;19.39;101592.22;5072677;28;20390;-68
2021/04/25 08:38:25;;;;;;;6.20;2.88;;;;;;;28.63;19.49;101585.25;5072858;28;20020;-68
2021/04/25 08:40:50;;;;;;;3.75;2.95;;;;;;;29.19;18.81;101589.41;5072800;28;20036;-68
2021/04/25 08:43:15;;;;;;;11.50;3.53;;;;;;;30.63;16.75;101593.91;5072477;28;20498;-68
2021/04/25 08:45:43;;;;;;;4.72;2.85;;;;;;;28.78;18.30;101587.84;5070918;28;20037;-68
2021/04/25 08:48:11;;;;;;;8.50;3.15;;;;;;;27.43;18.95;101582.53;5071576;28;20036;-68
2021/04/25 08:50:36;;;;;;;8.50;2.60;;;;;;;24.91;21.73;101585.03;5071383;28;20078;-68
2021/04/25 08:53:02;;;;;;;4.57;2.92;;;;;;;23.60;23.71;101591.78;5071382;28;20024;-68
2021/04/25 08:55:28;;;;;;;8.13;3.00;;;;;;;26.86;20.09;101581.69;5071106;28;20024;-68
2021/04/25 08:57:53;;;;;;;4.88;2.90;;;;;;;26.08;20.78;101583.75;5071208;28;20016;-68
2021/04/25 09:00:19;;;;;;;5.40;3.13;;;;;;;24.65;22.49;101588.19;5072342;28;20035;-68
2021/04/25 09:02:45;;;;;;;4.90;2.33;;;;;;;24.88;21.93;101591.47;5054481;28;20031;-68
2021/04/25 09:05:11;;;;;;;5.70;3.30;;;;;;;25.10;22.04;101595.66;5037747;28;20029;-68
2021/04/25 09:07:51;;;;;;;9.65;2.70;;;;;;;29.10;18.45;101586.50;5071018;28;20020;-68
2021/04/25 09:10:17;;;;;;;5.60;2.75;;;;;;;28.89;17.99;101581.63;5072335;28;20426;-68
2021/04/25 09:12:45;;;;;;;6.60;2.72;;;;;;;24.35;21.95;101583.50;5072142;28;20020;-68
2021/04/25 09:15:10;;;;;;;4.32;2.92;;;;;;;25.98;21.31;101596.97;5072015;28;20111;-68
2021/04/25 09:17:55;;;;;;;5.67;2.20;;;;;;;23.70;22.13;101604.69;5071921;28;20056;-68
2021/04/25 09:20:31;;;;;;;32.50;4.82;;;;;;;22.70;23.41;101575.38;5070668;28;20287;-68
2021/04/25 09:22:56;;;;;;;4.53;2.60;;;;;;;24.37;21.71;101581.56;5072079;28;20084;-68
2021/04/25 09:25:22;;;;;;;4.65;2.70;;;;;;;27.43;18.87;101585.25;5071841;28;20108;-68
2021/04/25 09:27:48;;;;;;;12.38;3.35;;;;;;;28.95;17.89;101586.63;5071963;28;20027;-68
2021/04/25 09:30:25;;;;;;;3.85;2.00;;;;;;;29.05;18.20;101590.38;5070861;28;20467;-68
2021/04/25 09:33:00;;;;;;;5.13;2.63;;;;;;;28.74;17.34;101595.31;5071732;28;20027;-68
2021/04/25 09:35:26;;;;;;;6.25;2.60;;;;;;;28.54;18.37;101594.91;5070213;28;20037;-68
2021/04/25 09:37:51;;;;;;;4.95;2.75;;;;;;;25.28;20.67;101593.75;5071771;28;20034;-68
2021/04/25 09:40:19;;;;;;;4.05;2.10;;;;;;;26.19;20.03;101578.56;5071929;28;20025;-69
2021/04/25 09:43:05;;;;;;;4.50;2.40;;;;;;;25.01;21.58;101594.38;5070382;28;20426;-69
2021/04/25 09:45:51;;;;;;;5.47;2.85;;;;;;;24.61;21.16;101581.22;5070499;28;20103;-68
2021/04/25 09:48:21;;;;;;;6.63;3.15;;;;;;;25.95;20.66;101586.34;5071288;28;20040;-69
2021/04/25 09:51:13;;;;;;;6.45;2.38;;;;;;;27.20;19.56;101584.09;5071755;28;20039;-67
2021/04/25 09:53:41;;;;;;;4.97;2.63;;;;;;;23.53;21.48;101596.56;5070559;28;20504;-68
2021/04/25 09:56:08;;;;;;;5.63;4.38;;;;;;;25.81;21.28;101590.72;5053415;28;20476;-68
2021/04/25 09:58:34;;;;;;;3.55;2.72;;;;;;;25.00;20.98;101594.44;5053805;28;20039;-68
2021/04/25 10:01:00;;;;;;;7.07;3.75;;;;;;;23.44;21.91;101593.41;5071451;28;20035;-68
2021/04/25 10:03:37;;;;;;;7.40;3.00;;;;;;;22.86;23.75;101595.22;5071596;28;20092;-68
2021/04/25 10:06:04;;;;;;;3.30;2.72;;;;;;;25.62;21.84;101589.13;5053687;28;20508;-68
2021/04/25 10:08:31;;;;;;;93.03;11.70;;;;;;;23.68;22.20;101595.81;5053744;28;20162;-68
2021/04/25 10:10:57;;;;;;;5.00;3.15;;;;;;;25.68;21.28;101587.03;5053502;28;20033;-68
2021/04/25 10:13:24;;;;;;;5.35;3.05;;;;;;;25.35;21.15;101594.25;5053694;28;20030;-68
2021/04/25 10:15:50;;;;;;;4.45;3.10;;;;;;;24.44;21.94;101591.06;5054446;28;20025;-68
2021/04/25 10:18:17;;;;;;;6.20;3.00;;;;;;;22.79;24.75;101596.44;5053420;28;20071;-68
2021/04/25 10:20:42;;;;;;;4.82;3.05;;;;;;;22.70;23.73;101596.88;5053719;28;20085;-68
2021/04/25 10:23:08;;;;;;;4.20;2.70;;;;;;;24.20;22.29;101599.50;5053651;28;20439;-67
2021/04/25 10:25:37;;;;;;;4.40;3.30;;;;;;;22.96;22.74;101592.97;5071129;28;20056;-68
2021/04/25 10:28:13;;;;;;;7.13;3.47;;;;;;;21.81;24.48;101604.25;5070257;28;20032;-68
2021/04/25 10:30:40;;;;;;;4.93;3.38;;;;;;;22.03;24.80;101596.16;5071505;28;20499;-67
2021/04/25 10:33:05;;;;;;;9.68;3.50;;;;;;;21.73;24.23;101606.31;5071014;28;20033;-67
2021/04/25 10:35:35;;;;;;;6.43;3.60;;;;;;;22.14;23.92;101594.81;5071111;28;20501;-68
2021/04/25 10:38:02;;;;;;;6.50;4.40;;;;;;;22.42;23.61;101597.16;5053699;28;20071;-68
2021/04/25 10:40:32;;;;;;;5.60;3.75;;;;;;;21.99;25.02;101607.06;5070144;28;20028;-68
2021/04/25 10:43:11;;;;;;;4.60;3.40;;;;;;;21.01;25.08;101601.13;5053839;28;20476;-67
2021/04/25 10:45:59;;;;;;;5.18;3.15;;;;;;;20.82;25.24;101603.59;5071093;28;20028;-68
2021/04/25 10:48:26;;;;;;;5.47;3.40;;;;;;;20.43;25.84;101602.31;5036552;28;20021;-68
2021/04/25 10:51:06;;;;;;;7.15;3.97;;;;;;;20.43;26.43;101604.97;5068188;28;20028;-68
2021/04/25 10:53:34;;;;;;;3.83;3.42;;;;;;;20.89;26.50;101611.38;5053318;28;20043;-67
2021/04/25 10:56:12;;;;;;;4.53;3.42;;;;;;;20.79;26.34;101611.72;5056396;28;20100;-67
2021/04/25 10:58:38;;;;;;;4.95;3.53;;;;;;;20.12;27.04;101612.31;5074893;28;20021;-67
2021/04/25 11:01:04;;;;;;;4.72;3.78;;;;;;;18.08;29.12;101614.66;5056756;28;20020;-66
2021/04/25 11:03:32;;;;;;;7.00;3.58;;;;;;;17.67;30.00;101620.13;5057018;28;20082;-66
2021/04/25 11:05:57;;;;;;;6.43;3.97;;;;;;;17.72;29.84;101616.47;5074484;28;20017;-67
2021/04/25 11:08:29;;;;;;;5.75;3.50;;;;;;;17.25;29.86;101606.88;5071721;28;20104;-67
2021/04/25 11:11:09;;;;;;;4.65;3.38;;;;;;;17.22;30.34;101623.81;5058621;28;20474;-67
2021/04/25 11:13:44;;;;;;;7.97;6.50;;;;;;;16.64;31.69;101613.44;5073353;28;20032;-66
2021/04/25 11:16:24;;;;;;;4.60;4.05;;;;;;;16.34;31.54;101608.63;5074236;28;20073;-67
2021/04/25 11:18:55;;;;;;;7.78;3.83;;;;;;;14.98;33.81;101618.63;5074557;28;20020;-66
2021/04/25 11:24:06;;;;;;;6.88;4.57;;;;;;;16.75;31.34;101608.75;5074238;28;20028;-66
2021/04/25 11:26:43;;;;;;;14.68;5.10;;;;;;;17.52;30.12;101617.81;5073674;28;20055;-66